Time;durP1;ratioP1;P1;durP2;ratioP2;P2;SDS_P1;SDS_P2;PMS_P1;PMS_P2;Temp;Humidity;BMP_temperature;BMP_pressure;BME280_temperature;BME280_humidity;BME280_pressure;Samples;Min_cycle;Max_cycle;Signal;HPM_P1;HPM_P2
2022/09/15 00:00:29;;;;;;;5.10;1.90;;;14.90;72.20;;;;;;5014313;28;20053;-90
2022/09/15 00:02:56;;;;;;;4.90;1.80;;;14.90;72.40;;;;;;5014573;28;20081;-89
2022/09/15 00:05:23;;;;;;;5.50;2.20;;;14.80;72.30;;;;;;5014343;28;20049;-89
2022/09/15 00:07:50;;;;;;;4.38;1.90;;;14.80;72.40;;;;;;5014814;28;20104;-89
2022/09/15 00:10:17;;;;;;;4.50;2.28;;;14.80;72.60;;;;;;5006095;28;20081;-90
2022/09/15 00:12:44;;;;;;;3.95;1.92;;;14.80;72.80;;;;;;5014764;28;20633;-89
2022/09/15 00:15:16;;;;;;;5.20;2.20;;;14.80;72.90;;;;;;5014285;28;20054;-89
2022/09/15 00:17:47;;;;;;;5.05;1.98;;;14.80;73.20;;;;;;5014709;28;20054;-88
2022/09/15 00:20:15;;;;;;;4.72;2.15;;;14.80;73.20;;;;;;5014010;28;20520;-89
2022/09/15 00:22:42;;;;;;;4.03;2.25;;;14.80;73.30;;;;;;5014075;28;20109;-89
2022/09/15 00:25:09;;;;;;;4.03;2.10;;;14.70;73.40;;;;;;5014509;28;20065;-90
2022/09/15 00:27:36;;;;;;;4.63;2.20;;;14.70;73.60;;;;;;5014519;28;20081;-89
2022/09/15 00:30:04;;;;;;;4.32;2.00;;;14.70;73.80;;;;;;5014754;28;20057;-89
2022/09/15 00:32:33;;;;;;;4.65;2.30;;;14.70;73.70;;;;;;5014961;28;20046;-90
2022/09/15 00:35:00;;;;;;;4.20;2.58;;;14.70;73.80;;;;;;5015004;28;20081;-91
2022/09/15 00:37:27;;;;;;;4.90;2.42;;;14.70;73.90;;;;;;4998096;28;20516;-91
2022/09/15 00:39:54;;;;;;;5.80;2.47;;;14.70;74.00;;;;;;5015159;28;20062;-90
2022/09/15 00:42:22;;;;;;;6.25;2.45;;;14.80;74.10;;;;;;5014537;28;20061;-90
2022/09/15 00:44:56;;;;;;;5.13;2.90;;;14.70;74.20;;;;;;5028987;28;20081;-90
2022/09/15 00:47:28;;;;;;;5.13;2.45;;;14.80;74.10;;;;;;4998489;28;20050;-91
2022/09/15 00:50:01;;;;;;;8.30;2.88;;;14.80;74.30;;;;;;5014625;28;20104;-90
2022/09/15 00:52:33;;;;;;;7.00;2.60;;;14.80;74.50;;;;;;4998213;28;20049;-92
2022/09/15 00:55:05;;;;;;;5.18;2.72;;;14.80;74.20;;;;;;5014509;28;20057;-92
2022/09/15 00:57:39;;;;;;;6.82;2.85;;;14.80;74.10;;;;;;5014144;28;20042;-91
2022/09/15 01:00:10;;;;;;;6.28;2.88;;;14.80;73.80;;;;;;5013723;28;20057;-90
2022/09/15 01:02:38;;;;;;;7.40;3.15;;;14.80;74.20;;;;;;5013909;28;20056;-89
2022/09/15 01:05:09;;;;;;;6.37;2.97;;;14.90;74.60;;;;;;4997409;28;20046;-90
2022/09/15 01:07:39;;;;;;;4.78;2.42;;;14.90;75.10;;;;;;5013965;28;20054;-90
2022/09/15 01:10:15;;;;;;;5.53;2.60;;;14.90;75.30;;;;;;5013174;28;20102;-91
2022/09/15 01:12:43;;;;;;;5.65;2.50;;;14.90;75.30;;;;;;5013824;28;20082;-90
2022/09/15 01:15:10;;;;;;;7.07;2.70;;;14.90;75.30;;;;;;5013459;28;20819;-90
2022/09/15 01:17:49;;;;;;;6.50;2.47;;;14.90;75.80;;;;;;5012841;28;20092;-90
2022/09/15 01:20:52;;;;;;;8.10;2.45;;;14.90;76.20;;;;;;5028930;28;20934;-89
2022/09/15 01:23:57;;;;;;;6.28;2.50;;;15.00;76.30;;;;;;5012668;28;20073;-91
2022/09/15 01:27:03;;;;;;;9.10;2.05;;;15.00;76.70;;;;;;5012719;28;20094;-91
2022/09/15 01:30:05;;;;;;;5.25;1.60;;;15.00;76.10;;;;;;5012476;28;20060;-90
2022/09/15 01:35:43;;;;;;;3.92;1.23;;;15.00;76.60;;;;;;4995573;28;20057;-90
2022/09/15 01:38:20;;;;;;;5.22;1.40;;;15.00;76.60;;;;;;5013907;28;20054;-91
2022/09/15 01:40:54;;;;;;;4.57;1.20;;;15.00;76.60;;;;;;5013277;28;20454;-90
2022/09/15 01:43:24;;;;;;;3.85;1.20;;;15.00;76.80;;;;;;5013198;28;20104;-90
2022/09/15 01:45:53;;;;;;;4.70;1.03;;;15.00;76.90;;;;;;5013553;28;20558;-91
2022/09/15 01:48:24;;;;;;;3.97;0.98;;;15.00;76.80;;;;;;4997839;28;20531;-91
2022/09/15 01:50:55;;;;;;;6.32;1.15;;;15.00;76.90;;;;;;5012311;28;20155;-90
2022/09/15 01:53:23;;;;;;;4.72;1.40;;;15.00;76.80;;;;;;5031099;28;20149;-90
2022/09/15 01:55:56;;;;;;;4.88;1.10;;;15.00;76.70;;;;;;5013616;28;20117;-90
2022/09/15 01:58:23;;;;;;;6.37;1.40;;;15.00;76.80;;;;;;5014037;28;20057;-90
2022/09/15 02:00:56;;;;;;;6.85;1.30;;;15.00;76.80;;;;;;5013505;28;20049;-90
2022/09/15 02:03:32;;;;;;;5.18;1.25;;;15.00;76.80;;;;;;5013610;28;20050;-90
2022/09/15 02:06:03;;;;;;;5.28;1.02;;;15.00;76.80;;;;;;5013318;28;20136;-91
2022/09/15 02:08:37;;;;;;;4.15;1.08;;;15.00;76.60;;;;;;5013309;28;20058;-89
2022/09/15 02:11:14;;;;;;;5.10;0.80;;;15.00;76.80;;;;;;5013415;28;20824;-90
2022/09/15 02:13:53;;;;;;;6.45;1.10;;;15.00;76.70;;;;;;5029758;28;20504;-89
2022/09/15 02:16:23;;;;;;;4.85;1.02;;;15.00;76.70;;;;;;5013241;28;20061;-91
2022/09/15 02:19:02;;;;;;;4.85;1.00;;;15.00;76.80;;;;;;5012730;28;20053;-89
2022/09/15 02:21:39;;;;;;;3.83;1.00;;;15.10;76.80;;;;;;5015714;28;20057;-90
2022/09/15 02:24:11;;;;;;;5.20;0.83;;;15.00;76.90;;;;;;5015809;28;20636;-90
2022/09/15 02:26:41;;;;;;;6.05;1.20;;;15.00;77.00;;;;;;4980659;28;20049;-91
2022/09/15 02:29:12;;;;;;;4.32;0.73;;;15.00;77.00;;;;;;4996432;28;20058;-90
2022/09/15 02:31:44;;;;;;;4.88;1.25;;;15.00;77.00;;;;;;4996953;28;20054;-89
2022/09/15 02:34:18;;;;;;;6.10;1.20;;;15.00;77.00;;;;;;4996765;28;20054;-90
2022/09/15 02:36:46;;;;;;;5.40;0.87;;;15.00;77.10;;;;;;4996535;28;20564;-89
2022/09/15 02:39:19;;;;;;;4.03;0.90;;;15.00;76.90;;;;;;4980326;28;20061;-90
2022/09/15 02:41:47;;;;;;;4.72;1.00;;;15.00;76.80;;;;;;4996769;28;20428;-91
2022/09/15 02:44:15;;;;;;;7.95;0.95;;;15.00;76.80;;;;;;4996685;28;20057;-89
2022/09/15 02:46:43;;;;;;;4.68;0.80;;;15.00;77.00;;;;;;4996830;28;20050;-89
2022/09/15 02:49:10;;;;;;;6.87;0.70;;;15.00;76.80;;;;;;5012330;28;20069;-90
2022/09/15 02:51:37;;;;;;;5.07;0.70;;;15.00;76.60;;;;;;4997072;28;20141;-91
2022/09/15 02:54:04;;;;;;;5.05;0.70;;;15.00;76.40;;;;;;4996271;28;20050;-90
2022/09/15 02:56:31;;;;;;;6.07;0.70;;;15.00;76.10;;;;;;4980376;28;20540;-90
2022/09/15 02:58:58;;;;;;;6.63;0.80;;;15.00;76.00;;;;;;5020432;28;20549;-89
2022/09/15 03:01:31;;;;;;;3.50;0.50;;;15.00;75.70;;;;;;5016007;28;20077;-89
2022/09/15 03:03:59;;;;;;;5.90;0.70;;;15.00;75.70;;;;;;5015346;28;20053;-88
2022/09/15 03:06:29;;;;;;;5.32;0.65;;;15.00;75.50;;;;;;5015369;28;20149;-89
2022/09/15 03:08:59;;;;;;;7.60;0.73;;;15.00;75.60;;;;;;4998813;28;20283;-89
2022/09/15 03:11:27;;;;;;;4.47;0.80;;;15.00;75.60;;;;;;5015606;28;20056;-89
2022/09/15 03:13:56;;;;;;;7.47;0.80;;;15.00;75.50;;;;;;5015493;28;20132;-90
2022/09/15 03:16:23;;;;;;;4.07;0.70;;;15.00;75.80;;;;;;5017321;28;20057;-89
2022/09/15 03:18:51;;;;;;;4.55;0.65;;;15.00;75.80;;;;;;5015248;28;20398;-88
2022/09/15 03:21:19;;;;;;;4.57;0.90;;;15.00;76.00;;;;;;5015250;28;20057;-88
2022/09/15 03:23:47;;;;;;;4.53;0.77;;;15.00;76.20;;;;;;4999232;28;20053;-89
2022/09/15 03:26:14;;;;;;;5.07;0.83;;;15.00;76.30;;;;;;5015193;28;20053;-90
2022/09/15 03:28:41;;;;;;;5.47;1.10;;;15.00;76.30;;;;;;5015292;28;20050;-89
2022/09/15 03:31:09;;;;;;;3.83;0.95;;;15.00;76.50;;;;;;5015392;28;20085;-89
2022/09/15 03:33:36;;;;;;;6.53;0.90;;;15.00;76.50;;;;;;4998814;28;20117;-89
2022/09/15 03:36:04;;;;;;;6.30;0.98;;;15.00;76.50;;;;;;4995511;28;20101;-89
2022/09/15 03:38:33;;;;;;;6.13;1.43;;;14.90;76.50;;;;;;4979013;28;20062;-89
2022/09/15 03:41:01;;;;;;;4.65;1.02;;;14.90;76.80;;;;;;4979392;28;20141;-89
2022/09/15 03:43:30;;;;;;;5.82;1.00;;;14.90;76.70;;;;;;4995667;28;20086;-89
2022/09/15 03:45:58;;;;;;;4.88;0.80;;;14.90;76.80;;;;;;4995469;28;20058;-90
2022/09/15 03:48:26;;;;;;;5.30;0.90;;;14.90;76.90;;;;;;4994919;28;20058;-88
2022/09/15 03:50:53;;;;;;;4.60;0.90;;;14.90;76.90;;;;;;4979209;28;20050;-89
2022/09/15 03:53:20;;;;;;;6.43;0.80;;;14.90;77.00;;;;;;4979805;28;20496;-91
2022/09/15 03:55:48;;;;;;;4.50;1.10;;;14.90;77.10;;;;;;4995277;28;20046;-89
2022/09/15 03:58:16;;;;;;;5.03;0.80;;;14.90;77.20;;;;;;4995982;28;20054;-90
2022/09/15 04:00:44;;;;;;;5.32;0.80;;;14.90;77.20;;;;;;4995015;28;20062;-89
2022/09/15 04:03:12;;;;;;;4.83;0.63;;;14.90;77.20;;;;;;4978932;28;20060;-90
2022/09/15 04:05:39;;;;;;;5.07;0.60;;;14.90;77.30;;;;;;4994988;28;20109;-89
2022/09/15 04:08:06;;;;;;;4.47;0.82;;;14.90;77.40;;;;;;5015082;28;20053;-90
2022/09/15 04:10:33;;;;;;;4.15;0.88;;;14.80;77.40;;;;;;5014911;28;20136;-90
2022/09/15 04:13:02;;;;;;;3.28;0.82;;;14.80;77.40;;;;;;5015118;28;20058;-90
2022/09/15 04:15:29;;;;;;;5.53;1.10;;;14.80;77.40;;;;;;5014711;28;20129;-89
2022/09/15 04:17:56;;;;;;;5.72;0.90;;;14.80;77.40;;;;;;5015166;28;20057;-91
2022/09/15 04:20:23;;;;;;;4.32;1.00;;;14.80;77.50;;;;;;5014556;28;20065;-91
2022/09/15 04:22:50;;;;;;;4.88;0.80;;;14.80;77.40;;;;;;5015053;28;20116;-90
2022/09/15 04:25:17;;;;;;;5.05;0.80;;;14.70;77.40;;;;;;5014666;28;20535;-89
2022/09/15 04:27:44;;;;;;;4.80;0.80;;;14.70;77.40;;;;;;5014911;28;20054;-90
2022/09/15 04:30:13;;;;;;;4.25;0.73;;;14.70;77.30;;;;;;5014482;28;20049;-89
2022/09/15 04:32:40;;;;;;;5.15;0.80;;;14.70;77.30;;;;;;5015194;28;20054;-90
2022/09/15 04:35:08;;;;;;;4.75;1.00;;;14.70;77.30;;;;;;5031006;28;20054;-90
2022/09/15 04:37:35;;;;;;;5.75;0.90;;;14.70;77.20;;;;;;5030843;28;20127;-89
2022/09/15 04:40:02;;;;;;;5.20;0.80;;;14.60;77.20;;;;;;5025183;28;20054;-89
2022/09/15 04:42:30;;;;;;;4.25;0.90;;;14.70;77.40;;;;;;4977896;28;20062;-89
2022/09/15 04:44:57;;;;;;;5.93;1.15;;;14.60;77.30;;;;;;4977179;28;20552;-89
2022/09/15 04:47:25;;;;;;;5.25;0.80;;;14.60;77.20;;;;;;4994783;28;20050;-88
2022/09/15 04:49:53;;;;;;;5.72;0.80;;;14.60;77.20;;;;;;4977665;28;20058;-89
2022/09/15 04:52:20;;;;;;;4.40;0.83;;;14.60;77.00;;;;;;4977893;28;20090;-89
2022/09/15 04:54:47;;;;;;;5.30;0.77;;;14.60;77.00;;;;;;4977656;28;20094;-90
2022/09/15 04:57:14;;;;;;;6.55;0.95;;;14.60;77.00;;;;;;4977698;28;20058;-89
2022/09/15 04:59:41;;;;;;;5.47;0.73;;;14.60;76.80;;;;;;4993955;28;20182;-90
2022/09/15 05:02:07;;;;;;;3.65;0.70;;;14.60;76.70;;;;;;4980496;28;20540;-89
2022/09/15 05:04:36;;;;;;;4.83;0.70;;;14.60;76.50;;;;;;5004727;28;20050;-90
2022/09/15 05:07:03;;;;;;;4.72;0.80;;;14.50;76.50;;;;;;5003314;28;20054;-90
2022/09/15 05:09:30;;;;;;;4.93;0.70;;;14.50;76.20;;;;;;5002729;28;20084;-89
2022/09/15 05:11:57;;;;;;;5.25;0.60;;;14.50;75.80;;;;;;4988737;28;20056;-89
2022/09/15 05:14:24;;;;;;;4.38;0.60;;;14.50;75.50;;;;;;5005369;28;20149;-89
2022/09/15 05:16:51;;;;;;;4.60;0.77;;;14.50;75.30;;;;;;5004863;28;20050;-90
2022/09/15 05:19:18;;;;;;;5.35;0.73;;;14.60;74.90;;;;;;4997112;28;20149;-90
2022/09/15 05:21:46;;;;;;;5.07;0.70;;;14.60;74.60;;;;;;5013837;28;20046;-89
2022/09/15 05:24:13;;;;;;;6.85;0.80;;;14.60;74.30;;;;;;5030150;28;20046;-89
2022/09/15 05:26:41;;;;;;;3.92;0.60;;;14.60;74.10;;;;;;4996823;28;20050;-89
2022/09/15 05:29:08;;;;;;;4.73;0.80;;;14.60;73.80;;;;;;4996825;28;20085;-89
2022/09/15 05:31:35;;;;;;;5.43;0.90;;;14.50;73.60;;;;;;4997036;28;20049;-89
2022/09/15 05:34:04;;;;;;;5.43;0.50;;;14.50;73.50;;;;;;4996729;28;20132;-88
2022/09/15 05:36:31;;;;;;;5.53;0.85;;;14.50;73.30;;;;;;4996690;28;20232;-89
2022/09/15 05:39:00;;;;;;;4.50;0.80;;;14.50;73.10;;;;;;5013031;28;20065;-89
2022/09/15 05:41:28;;;;;;;7.50;0.87;;;14.50;73.00;;;;;;5030843;28;20050;-91
2022/09/15 05:43:56;;;;;;;4.88;0.80;;;14.50;72.90;;;;;;5013094;28;20050;-90
2022/09/15 05:46:25;;;;;;;5.18;0.80;;;14.50;72.80;;;;;;4990624;28;20145;-89
2022/09/15 05:48:53;;;;;;;7.43;0.70;;;14.50;72.70;;;;;;4999800;28;20050;-90
2022/09/15 05:51:21;;;;;;;5.68;0.60;;;14.50;72.70;;;;;;4995145;28;20056;-90
2022/09/15 05:53:49;;;;;;;6.40;0.80;;;14.50;72.70;;;;;;4996276;28;20042;-91
2022/09/15 05:56:18;;;;;;;6.45;0.73;;;14.50;72.50;;;;;;4996494;28;20054;-90
2022/09/15 05:58:47;;;;;;;4.30;0.80;;;14.50;72.50;;;;;;5012480;28;20570;-90
2022/09/15 06:01:17;;;;;;;5.90;0.88;;;14.50;72.60;;;;;;4998524;28;20060;-90
2022/09/15 06:03:44;;;;;;;5.18;0.68;;;14.50;72.50;;;;;;5000260;28;20475;-89
2022/09/15 06:06:12;;;;;;;5.70;0.60;;;14.50;72.30;;;;;;5016462;28;20062;-91
2022/09/15 06:08:41;;;;;;;5.97;0.80;;;14.50;72.20;;;;;;5005418;28;20082;-92
2022/09/15 06:11:10;;;;;;;4.32;0.57;;;14.50;72.20;;;;;;4993402;28;20090;-92
2022/09/15 06:13:40;;;;;;;4.40;0.68;;;14.40;72.10;;;;;;5011186;28;20042;-90
2022/09/15 06:16:09;;;;;;;8.25;1.10;;;14.50;72.20;;;;;;5010200;28;20058;-90
2022/09/15 06:18:38;;;;;;;6.50;0.83;;;14.50;72.10;;;;;;5015097;28;20050;-90
2022/09/15 06:21:11;;;;;;;4.40;0.70;;;14.50;72.00;;;;;;4999405;28;20086;-88
2022/09/15 06:23:40;;;;;;;8.30;0.90;;;14.50;72.00;;;;;;4901055;28;20045;-90
2022/09/15 06:26:10;;;;;;;6.15;0.88;;;14.50;72.00;;;;;;5033192;28;20064;-91
2022/09/15 06:28:40;;;;;;;6.43;0.73;;;14.60;71.90;;;;;;5018685;28;20104;-90
2022/09/15 06:31:13;;;;;;;2.93;0.40;;;14.50;71.70;;;;;;5019566;28;20085;-89
2022/09/15 06:33:42;;;;;;;7.20;1.10;;;14.60;71.70;;;;;;5019470;28;20046;-89
2022/09/15 06:36:10;;;;;;;6.30;0.80;;;14.60;71.70;;;;;;5035941;28;20049;-91
2022/09/15 06:38:47;;;;;;;6.03;0.80;;;14.60;71.60;;;;;;5021620;28;20062;-91
2022/09/15 06:41:17;;;;;;;5.28;0.70;;;14.60;71.50;;;;;;5038773;28;20050;-91
2022/09/15 06:43:48;;;;;;;8.47;0.90;;;14.60;71.20;;;;;;5019559;28;20046;-87
2022/09/15 06:46:22;;;;;;;5.03;0.70;;;14.70;71.20;;;;;;5020207;28;20201;-88
2022/09/15 06:49:01;;;;;;;3.67;0.60;;;14.70;71.10;;;;;;5037267;28;20046;-90
2022/09/15 06:51:34;;;;;;;4.50;0.60;;;14.70;71.10;;;;;;5037634;28;20058;-90
2022/09/15 06:58:17;;;;;;;7.40;1.00;;;14.70;71.40;;;;;;5002575;28;20145;-89
2022/09/15 07:00:45;;;;;;;6.03;0.80;;;14.80;71.40;;;;;;5004486;28;20057;-86
2022/09/15 07:03:14;;;;;;;6.90;0.70;;;14.80;71.30;;;;;;5018198;28;20914;-93
2022/09/15 07:05:47;;;;;;;4.97;0.70;;;14.80;71.40;;;;;;5019060;28;20060;-89
2022/09/15 07:08:18;;;;;;;4.57;0.70;;;14.80;71.20;;;;;;5019430;28;20057;-92
2022/09/15 07:10:46;;;;;;;7.10;1.10;;;14.90;71.00;;;;;;5035310;28;20083;-89
2022/09/15 07:13:19;;;;;;;5.72;0.55;;;14.90;71.00;;;;;;5017578;28;20058;-90
2022/09/15 07:15:54;;;;;;;4.35;0.73;;;14.90;70.70;;;;;;5034600;28;20054;-86
2022/09/15 07:18:23;;;;;;;6.82;0.80;;;14.90;70.50;;;;;;5018468;28;20050;-89
2022/09/15 07:20:52;;;;;;;5.85;0.60;;;15.00;70.60;;;;;;5035016;28;20054;-90
2022/09/15 07:23:23;;;;;;;4.43;0.70;;;15.00;70.70;;;;;;5034968;28;20060;-86
2022/09/15 07:25:54;;;;;;;5.00;0.50;;;15.00;70.60;;;;;;5018823;28;20064;-93
2022/09/15 07:28:26;;;;;;;5.75;0.70;;;15.00;70.70;;;;;;5016022;28;20156;-87
2022/09/15 07:31:03;;;;;;;10.50;0.93;;;15.00;70.80;;;;;;5035094;28;20109;-88
2022/09/15 07:33:32;;;;;;;5.70;0.70;;;15.00;70.40;;;;;;5014572;28;20140;-84
2022/09/15 07:36:05;;;;;;;6.40;0.80;;;15.00;70.20;;;;;;5035017;28;20050;-90
2022/09/15 07:38:38;;;;;;;5.20;0.32;;;15.00;70.40;;;;;;5034212;28;20499;-88
2022/09/15 07:41:08;;;;;;;4.45;0.70;;;15.10;70.50;;;;;;5015802;28;20135;-84
2022/09/15 07:43:40;;;;;;;3.85;0.50;;;15.10;70.70;;;;;;5031579;28;20117;-86
2022/09/15 07:46:09;;;;;;;7.35;0.90;;;15.20;70.80;;;;;;5016107;28;20456;-83
2022/09/15 07:48:36;;;;;;;4.37;0.70;;;15.20;70.90;;;;;;5035068;28;20050;-84
2022/09/15 07:51:09;;;;;;;4.90;0.70;;;15.20;70.90;;;;;;5016656;28;20058;-88
2022/09/15 07:53:44;;;;;;;4.22;0.60;;;15.30;71.00;;;;;;5034801;28;20054;-90
2022/09/15 07:56:11;;;;;;;5.00;0.63;;;15.30;70.80;;;;;;4999213;28;20098;-85
2022/09/15 07:58:39;;;;;;;7.72;0.68;;;15.40;70.60;;;;;;4998977;28;20054;-81
2022/09/15 08:01:09;;;;;;;3.17;0.43;;;15.40;70.10;;;;;;5010290;28;20838;-81
2022/09/15 08:03:39;;;;;;;5.28;0.60;;;15.50;69.50;;;;;;5029992;28;20101;-83
2022/09/15 08:06:06;;;;;;;4.22;0.63;;;15.50;69.40;;;;;;5026080;28;20046;-82
2022/09/15 08:08:34;;;;;;;6.15;0.65;;;15.50;69.30;;;;;;5012898;28;20566;-81
2022/09/15 08:11:06;;;;;;;6.70;0.60;;;15.50;69.30;;;;;;5011081;28;20060;-81
2022/09/15 08:13:33;;;;;;;4.60;0.60;;;15.50;69.20;;;;;;5011138;28;20050;-82
2022/09/15 08:16:09;;;;;;;4.00;0.55;;;15.60;68.90;;;;;;5011048;28;20047;-80
2022/09/15 08:18:38;;;;;;;4.75;1.05;;;15.60;69.00;;;;;;4993416;28;20046;-80
2022/09/15 08:21:06;;;;;;;4.55;0.52;;;15.60;69.00;;;;;;5023296;28;20058;-80
2022/09/15 08:23:33;;;;;;;3.90;0.70;;;15.60;68.70;;;;;;5030600;28;20112;-82
2022/09/15 08:26:01;;;;;;;5.03;0.60;;;15.70;69.10;;;;;;5028929;28;20056;-82
2022/09/15 08:28:49;;;;;;;3.33;0.50;;;15.70;69.20;;;;;;5030360;28;20064;-83
2022/09/15 08:31:18;;;;;;;4.45;0.65;;;15.80;68.80;;;;;;4967393;28;20138;-83
2022/09/15 08:33:48;;;;;;;4.75;0.57;;;15.80;68.80;;;;;;4985709;28;20080;-83
2022/09/15 08:36:15;;;;;;;3.60;0.52;;;15.80;68.50;;;;;;4968748;28;20051;-84
2022/09/15 08:38:45;;;;;;;8.23;0.83;;;15.80;68.40;;;;;;4968489;28;20122;-81
2022/09/15 08:41:17;;;;;;;4.35;0.60;;;15.90;68.20;;;;;;4984056;28;20055;-82
2022/09/15 08:43:47;;;;;;;3.67;0.55;;;16.00;67.70;;;;;;4967437;28;20055;-82
2022/09/15 08:46:21;;;;;;;6.55;0.60;;;16.00;67.40;;;;;;4954930;28;20051;-83
2022/09/15 08:48:55;;;;;;;4.30;0.45;;;16.00;67.50;;;;;;4942139;28;20942;-81
2022/09/15 08:51:30;;;;;;;4.40;0.70;;;16.00;67.30;;;;;;4960465;28;20146;-81
2022/09/15 08:54:02;;;;;;;3.58;0.40;;;16.00;67.10;;;;;;4970484;28;20178;-78
2022/09/15 08:56:29;;;;;;;4.05;0.47;;;16.10;67.00;;;;;;4969626;28;20517;-82
2022/09/15 08:58:56;;;;;;;5.07;0.60;;;16.10;67.10;;;;;;4969034;28;20063;-83
2022/09/15 09:01:38;;;;;;;3.92;0.40;;;16.10;67.20;;;;;;4953710;28;20155;-82
2022/09/15 09:04:23;;;;;;;5.73;0.70;;;16.10;67.10;;;;;;4969596;28;20767;-82
2022/09/15 09:06:59;;;;;;;5.68;0.63;;;16.20;66.90;;;;;;4950013;28;20143;-81
2022/09/15 09:09:38;;;;;;;6.45;0.70;;;16.20;67.00;;;;;;4969409;28;20043;-81
2022/09/15 09:12:36;;;;;;;4.78;0.60;;;16.20;67.00;;;;;;4969573;28;20055;-82
2022/09/15 09:15:17;;;;;;;5.20;0.80;;;16.40;67.00;;;;;;4982064;28;20138;-82
2022/09/15 09:18:06;;;;;;;3.67;0.53;;;16.40;67.10;;;;;;4953400;28;20139;-82
2022/09/15 09:20:46;;;;;;;4.35;0.80;;;16.40;66.70;;;;;;4970092;28;20082;-81
2022/09/15 09:23:15;;;;;;;4.22;0.75;;;16.40;66.50;;;;;;4970405;28;20087;-80
2022/09/15 09:25:43;;;;;;;4.97;0.50;;;16.50;66.50;;;;;;4966837;28;20047;-80
2022/09/15 09:28:24;;;;;;;4.95;0.47;;;16.60;66.10;;;;;;4967494;28;20044;-80
2022/09/15 09:30:50;;;;;;;6.93;0.77;;;16.60;65.80;;;;;;4983725;28;20047;-80
2022/09/15 09:33:29;;;;;;;5.03;0.80;;;16.70;65.30;;;;;;4987783;28;20055;-79
2022/09/15 09:36:00;;;;;;;4.50;0.52;;;16.70;65.20;;;;;;4989790;28;20142;-79
2022/09/15 09:38:30;;;;;;;4.97;0.52;;;16.80;65.20;;;;;;4989045;28;20046;-79
2022/09/15 09:40:58;;;;;;;5.68;0.70;;;16.80;64.60;;;;;;4989013;28;20102;-79
2022/09/15 09:43:26;;;;;;;3.50;0.57;;;16.90;64.30;;;;;;4972730;28;20434;-79
2022/09/15 09:45:53;;;;;;;4.68;0.50;;;16.90;64.40;;;;;;4984728;28;20516;-79
2022/09/15 09:48:25;;;;;;;4.13;0.68;;;16.90;63.40;;;;;;4988553;28;20047;-80
2022/09/15 09:50:53;;;;;;;7.07;0.70;;;17.00;63.30;;;;;;4988685;28;20077;-79
2022/09/15 09:53:26;;;;;;;3.83;0.52;;;17.00;62.80;;;;;;5000390;28;20055;-79
2022/09/15 09:55:54;;;;;;;4.70;0.60;;;17.00;62.00;;;;;;5004278;28;20517;-79
2022/09/15 09:58:23;;;;;;;4.25;0.57;;;17.00;62.10;;;;;;4986221;28;20505;-80
2022/09/15 10:00:51;;;;;;;3.35;0.60;;;17.00;61.60;;;;;;4987892;28;20089;-80
2022/09/15 10:03:20;;;;;;;3.13;0.40;;;17.00;61.00;;;;;;4988476;28;20065;-80
2022/09/15 10:06:02;;;;;;;5.75;0.65;;;17.00;60.60;;;;;;4988235;28;20577;-82
2022/09/15 10:08:29;;;;;;;5.33;0.60;;;17.00;60.90;;;;;;4988332;28;20530;-81
2022/09/15 10:11:05;;;;;;;2.75;0.40;;;17.00;60.80;;;;;;4987411;28;20051;-80
2022/09/15 10:13:34;;;;;;;1.95;0.30;;;17.00;60.70;;;;;;4987835;28;20511;-83
2022/09/15 10:16:05;;;;;;;2.17;0.40;;;17.00;61.00;;;;;;4987643;28;20074;-83
2022/09/15 10:18:34;;;;;;;2.97;0.40;;;17.00;61.00;;;;;;4986810;28;20054;-81
2022/09/15 10:21:05;;;;;;;3.97;0.40;;;17.10;61.10;;;;;;4970534;28;20057;-82
2022/09/15 10:23:33;;;;;;;3.78;0.63;;;17.10;61.00;;;;;;4987064;28;20078;-79
2022/09/15 10:26:22;;;;;;;4.78;0.50;;;17.20;60.50;;;;;;4988388;28;20576;-78
2022/09/15 10:29:12;;;;;;;4.45;0.73;;;17.20;60.70;;;;;;4984605;28;20139;-82
2022/09/15 10:31:40;;;;;;;3.85;0.50;;;17.20;61.20;;;;;;4989148;28;20493;-85
2022/09/15 10:34:29;;;;;;;3.57;0.50;;;17.20;61.40;;;;;;4989221;28;20055;-82
2022/09/15 10:37:06;;;;;;;5.18;0.47;;;17.20;61.60;;;;;;4973278;28;20055;-85
2022/09/15 10:39:44;;;;;;;3.55;0.40;;;17.30;61.30;;;;;;4972271;28;20061;-81
2022/09/15 10:42:18;;;;;;;9.30;0.90;;;17.40;61.10;;;;;;4990386;28;20515;-82
2022/09/15 10:44:57;;;;;;;3.78;0.47;;;17.40;60.40;;;;;;4975544;28;20450;-83
2022/09/15 10:47:38;;;;;;;3.27;0.80;;;17.40;60.00;;;;;;4992568;28;20055;-84
2022/09/15 10:50:13;;;;;;;4.95;0.73;;;17.50;60.30;;;;;;4990924;28;20047;-83
2022/09/15 10:52:54;;;;;;;5.60;0.82;;;17.50;60.60;;;;;;4990749;28;20131;-86
2022/09/15 10:55:32;;;;;;;4.72;0.60;;;17.50;61.20;;;;;;4991174;28;20046;-85
2022/09/15 10:58:20;;;;;;;3.85;0.60;;;17.50;61.40;;;;;;5007065;28;20063;-84
2022/09/15 11:01:00;;;;;;;4.30;0.70;;;17.60;62.10;;;;;;4990479;28;20146;-84
2022/09/15 11:03:53;;;;;;;5.95;0.85;;;17.60;62.50;;;;;;4986377;28;20057;-85
2022/09/15 11:06:27;;;;;;;3.90;0.68;;;17.60;62.80;;;;;;4989756;28;20133;-85
2022/09/15 11:09:14;;;;;;;3.85;0.52;;;17.60;63.20;;;;;;4989094;28;20181;-85
2022/09/15 11:11:52;;;;;;;4.07;0.57;;;17.60;63.50;;;;;;4987938;28;20250;-84
2022/09/15 11:14:47;;;;;;;4.83;0.70;;;17.50;63.80;;;;;;4988854;28;20126;-85
2022/09/15 11:17:29;;;;;;;5.43;0.70;;;17.50;64.30;;;;;;4992052;28;20084;-84
2022/09/15 11:20:16;;;;;;;2.97;0.77;;;17.50;64.50;;;;;;4989861;28;20051;-85
2022/09/15 11:22:48;;;;;;;3.28;0.50;;;17.50;65.10;;;;;;5005607;28;20134;-84
2022/09/15 11:25:20;;;;;;;4.75;0.75;;;17.60;65.40;;;;;;4974477;28;20138;-85
2022/09/15 11:27:53;;;;;;;3.40;0.40;;;17.60;65.40;;;;;;4991703;28;20632;-84
2022/09/15 11:30:23;;;;;;;5.13;0.77;;;17.60;65.20;;;;;;4990213;28;20496;-85
2022/09/15 11:32:56;;;;;;;5.28;0.60;;;17.60;65.50;;;;;;4991156;28;20078;-84
2022/09/15 11:35:36;;;;;;;4.22;0.60;;;17.60;65.80;;;;;;4990871;28;20055;-85
2022/09/15 11:38:18;;;;;;;6.65;0.70;;;17.60;65.80;;;;;;4987449;28;20086;-84
2022/09/15 11:40:51;;;;;;;3.93;0.60;;;17.60;66.00;;;;;;4990174;28;20114;-85
2022/09/15 11:43:26;;;;;;;5.22;0.77;;;17.60;66.20;;;;;;4988883;28;20502;-86
2022/09/15 11:45:56;;;;;;;8.70;0.80;;;17.70;66.90;;;;;;4974235;28;20058;-83
2022/09/15 11:48:30;;;;;;;5.03;0.60;;;17.70;67.50;;;;;;4990966;28;20170;-84
2022/09/15 11:51:00;;;;;;;4.90;0.88;;;17.70;67.60;;;;;;5003692;28;20172;-83
2022/09/15 11:53:33;;;;;;;3.70;0.60;;;17.80;67.50;;;;;;4971705;28;20165;-83
2022/09/15 11:56:14;;;;;;;5.10;0.57;;;17.80;67.20;;;;;;4987131;28;20047;-80
2022/09/15 11:58:54;;;;;;;2.42;0.45;;;17.80;67.10;;;;;;4986993;28;20059;-82
2022/09/15 12:01:24;;;;;;;2.70;0.30;;;17.80;66.20;;;;;;4988476;28;20554;-82
2022/09/15 12:03:56;;;;;;;2.92;0.50;;;17.90;65.40;;;;;;4988744;28;20047;-82
2022/09/15 12:06:30;;;;;;;3.70;0.50;;;17.90;65.50;;;;;;4988120;28;20047;-82
2022/09/15 12:09:00;;;;;;;3.10;0.50;;;17.90;65.40;;;;;;4989205;28;20058;-81
2022/09/15 12:11:32;;;;;;;4.45;0.47;;;17.90;65.30;;;;;;4990608;28;20054;-81
2022/09/15 12:13:59;;;;;;;5.68;0.60;;;18.00;65.10;;;;;;4981556;28;20051;-81
2022/09/15 12:16:27;;;;;;;4.13;0.60;;;18.00;65.00;;;;;;4993236;28;20055;-81
2022/09/15 12:18:59;;;;;;;4.20;0.50;;;18.00;64.70;;;;;;4984729;28;20106;-81
2022/09/15 12:21:34;;;;;;;3.55;0.73;;;18.00;64.70;;;;;;4988331;28;20051;-81
2022/09/15 12:24:10;;;;;;;4.55;0.80;;;18.00;64.30;;;;;;4989298;28;20051;-81
2022/09/15 12:26:39;;;;;;;3.55;0.50;;;18.00;64.30;;;;;;4992335;28;20050;-81
2022/09/15 12:29:47;;;;;;;4.13;0.50;;;18.00;64.30;;;;;;4988242;28;20062;-81
2022/09/15 12:32:20;;;;;;;3.00;0.43;;;18.00;64.20;;;;;;4987559;28;20055;-79
2022/09/15 12:35:03;;;;;;;2.78;0.35;;;18.00;63.70;;;;;;4997026;28;20055;-79
2022/09/15 12:37:36;;;;;;;3.35;0.50;;;18.00;62.00;;;;;;4989822;28;20061;-79
2022/09/15 12:40:05;;;;;;;3.50;0.43;;;18.00;60.20;;;;;;4989721;28;20113;-79
2022/09/15 12:42:36;;;;;;;4.00;0.30;;;18.00;59.80;;;;;;4991897;28;20509;-79
2022/09/15 12:45:06;;;;;;;4.00;0.40;;;18.00;59.40;;;;;;4989384;28;20167;-79
2022/09/15 12:47:37;;;;;;;2.30;0.40;;;18.00;59.50;;;;;;4990317;28;20501;-79
2022/09/15 12:50:25;;;;;;;3.75;0.70;;;17.90;60.20;;;;;;4992650;28;20058;-79
2022/09/15 12:52:54;;;;;;;2.05;0.30;;;17.90;60.40;;;;;;4970027;28;20074;-79
2022/09/15 12:55:24;;;;;;;2.92;0.30;;;18.00;60.70;;;;;;4970827;28;20552;-79
2022/09/15 12:57:58;;;;;;;2.67;0.37;;;18.00;60.70;;;;;;4970838;28;20079;-79
2022/09/15 13:00:44;;;;;;;2.78;0.57;;;18.00;60.60;;;;;;4971221;28;20138;-79
2022/09/15 13:03:27;;;;;;;4.15;0.50;;;18.00;60.30;;;;;;4970688;28;20655;-79
2022/09/15 13:06:18;;;;;;;2.65;0.47;;;18.10;59.20;;;;;;4971641;28;20166;-79
2022/09/15 13:09:24;;;;;;;3.50;0.50;;;18.10;59.30;;;;;;4970464;28;20062;-79
2022/09/15 13:11:53;;;;;;;2.93;0.50;;;18.10;59.10;;;;;;4970337;28;20107;-79
2022/09/15 13:14:27;;;;;;;2.95;0.40;;;18.00;58.50;;;;;;4970498;28;20061;-79
2022/09/15 13:16:58;;;;;;;4.40;0.63;;;18.00;58.50;;;;;;4970699;28;20074;-79
2022/09/15 13:19:31;;;;;;;3.75;0.52;;;18.00;59.10;;;;;;4983767;28;20050;-79